sensor_id;sensor_type;location;lat;lon;timestamp;P1;durP1;ratioP1;P2;durP2;ratioP2
3841;SDS011;1936;47.074;15.336;2022-10-16T00:00:32;69.73;;;44.57;;
3841;SDS011;1936;47.074;15.336;2022-10-16T00:02:37;64.30;;;44.60;;
3841;SDS011;1936;47.074;15.336;2022-10-16T00:04:40;67.27;;;44.80;;
3841;SDS011;1936;47.074;15.336;2022-10-16T00:06:43;59.90;;;38.90;;
3841;SDS011;1936;47.074;15.336;2022-10-16T00:08:47;59.13;;;40.10;;
3841;SDS011;1936;47.074;15.336;2022-10-16T00:10:50;62.50;;;42.20;;
3841;SDS011;1936;47.074;15.336;2022-10-16T00:12:54;59.67;;;40.53;;
3841;SDS011;1936;47.074;15.336;2022-10-16T00:14:59;61.20;;;41.67;;
3841;SDS011;1936;47.074;15.336;2022-10-16T00:17:02;61.97;;;39.83;;
3841;SDS011;1936;47.074;15.336;2022-10-16T00:19:06;63.83;;;44.40;;
3841;SDS011;1936;47.074;15.336;2022-10-16T00:21:11;53.37;;;39.60;;
3841;SDS011;1936;47.074;15.336;2022-10-16T00:23:16;55.23;;;39.00;;
3841;SDS011;1936;47.074;15.336;2022-10-16T00:25:19;55.63;;;37.87;;
3841;SDS011;1936;47.074;15.336;2022-10-16T00:27:22;67.17;;;38.53;;
3841;SDS011;1936;47.074;15.336;2022-10-16T00:29:25;63.53;;;38.47;;
3841;SDS011;1936;47.074;15.336;2022-10-16T00:31:30;56.43;;;38.70;;
3841;SDS011;1936;47.074;15.336;2022-10-16T00:33:34;64.60;;;38.97;;
3841;SDS011;1936;47.074;15.336;2022-10-16T00:35:38;49.80;;;36.40;;
3841;SDS011;1936;47.074;15.336;2022-10-16T00:37:41;49.87;;;36.37;;
3841;SDS011;1936;47.074;15.336;2022-10-16T00:39:44;51.80;;;37.10;;
3841;SDS011;1936;47.074;15.336;2022-10-16T00:41:48;52.13;;;36.93;;
3841;SDS011;1936;47.074;15.336;2022-10-16T00:43:53;55.80;;;36.10;;
3841;SDS011;1936;47.074;15.336;2022-10-16T00:45:57;53.80;;;35.77;;
3841;SDS011;1936;47.074;15.336;2022-10-16T00:48:02;48.30;;;36.90;;
3841;SDS011;1936;47.074;15.336;2022-10-16T00:50:08;48.73;;;34.60;;
3841;SDS011;1936;47.074;15.336;2022-10-16T00:52:12;50.13;;;34.63;;
3841;SDS011;1936;47.074;15.336;2022-10-16T00:54:20;56.87;;;39.50;;
3841;SDS011;1936;47.074;15.336;2022-10-16T00:56:25;50.20;;;37.10;;
3841;SDS011;1936;47.074;15.336;2022-10-16T00:58:29;50.43;;;37.67;;
3841;SDS011;1936;47.074;15.336;2022-10-16T01:00:32;56.73;;;36.73;;
3841;SDS011;1936;47.074;15.336;2022-10-16T01:02:36;52.87;;;36.77;;
3841;SDS011;1936;47.074;15.336;2022-10-16T01:04:41;58.70;;;35.60;;
3841;SDS011;1936;47.074;15.336;2022-10-16T01:06:46;48.50;;;34.30;;
3841;SDS011;1936;47.074;15.336;2022-10-16T01:09:13;43.57;;;33.17;;
3841;SDS011;1936;47.074;15.336;2022-10-16T01:11:22;55.30;;;34.10;;
3841;SDS011;1936;47.074;15.336;2022-10-16T01:13:30;53.13;;;34.47;;
3841;SDS011;1936;47.074;15.336;2022-10-16T01:15:40;45.10;;;32.17;;
3841;SDS011;1936;47.074;15.336;2022-10-16T01:17:46;44.53;;;30.87;;
3841;SDS011;1936;47.074;15.336;2022-10-16T01:20:04;45.63;;;31.30;;
3841;SDS011;1936;47.074;15.336;2022-10-16T01:22:10;48.03;;;32.23;;
3841;SDS011;1936;47.074;15.336;2022-10-16T01:24:17;46.80;;;30.33;;
3841;SDS011;1936;47.074;15.336;2022-10-16T01:26:31;48.00;;;31.37;;
3841;SDS011;1936;47.074;15.336;2022-10-16T01:28:41;46.33;;;29.60;;
3841;SDS011;1936;47.074;15.336;2022-10-16T01:30:50;45.40;;;31.97;;
3841;SDS011;1936;47.074;15.336;2022-10-16T01:32:57;54.57;;;29.60;;
3841;SDS011;1936;47.074;15.336;2022-10-16T01:35:09;43.30;;;33.13;;
3841;SDS011;1936;47.074;15.336;2022-10-16T01:37:18;43.20;;;30.67;;
3841;SDS011;1936;47.074;15.336;2022-10-16T01:39:24;46.40;;;32.37;;
3841;SDS011;1936;47.074;15.336;2022-10-16T01:41:32;42.70;;;30.97;;
3841;SDS011;1936;47.074;15.336;2022-10-16T01:43:37;47.47;;;32.10;;
3841;SDS011;1936;47.074;15.336;2022-10-16T01:45:44;45.00;;;28.77;;
3841;SDS011;1936;47.074;15.336;2022-10-16T01:47:49;42.30;;;31.30;;
3841;SDS011;1936;47.074;15.336;2022-10-16T01:49:54;52.03;;;32.50;;
3841;SDS011;1936;47.074;15.336;2022-10-16T01:51:59;52.80;;;31.97;;
3841;SDS011;1936;47.074;15.336;2022-10-16T01:54:07;47.37;;;32.80;;
3841;SDS011;1936;47.074;15.336;2022-10-16T01:56:12;44.93;;;32.57;;
3841;SDS011;1936;47.074;15.336;2022-10-16T01:58:16;52.13;;;31.77;;
3841;SDS011;1936;47.074;15.336;2022-10-16T02:00:20;45.00;;;31.43;;
3841;SDS011;1936;47.074;15.336;2022-10-16T02:02:26;48.27;;;32.67;;
3841;SDS011;1936;47.074;15.336;2022-10-16T02:04:31;40.60;;;27.50;;
3841;SDS011;1936;47.074;15.336;2022-10-16T02:06:38;44.53;;;27.83;;
3841;SDS011;1936;47.074;15.336;2022-10-16T02:08:41;40.10;;;27.77;;
3841;SDS011;1936;47.074;15.336;2022-10-16T02:10:45;32.03;;;24.17;;
3841;SDS011;1936;47.074;15.336;2022-10-16T02:12:50;49.77;;;31.80;;
3841;SDS011;1936;47.074;15.336;2022-10-16T02:14:58;39.00;;;28.90;;
3841;SDS011;1936;47.074;15.336;2022-10-16T02:17:09;40.23;;;27.37;;
3841;SDS011;1936;47.074;15.336;2022-10-16T02:19:14;38.83;;;28.97;;
3841;SDS011;1936;47.074;15.336;2022-10-16T02:21:19;49.10;;;30.70;;
3841;SDS011;1936;47.074;15.336;2022-10-16T02:23:30;46.33;;;31.00;;
3841;SDS011;1936;47.074;15.336;2022-10-16T02:25:40;34.87;;;27.57;;
3841;SDS011;1936;47.074;15.336;2022-10-16T02:27:46;56.77;;;30.50;;
3841;SDS011;1936;47.074;15.336;2022-10-16T02:29:53;42.50;;;29.07;;
3841;SDS011;1936;47.074;15.336;2022-10-16T02:32:04;39.00;;;26.83;;
3841;SDS011;1936;47.074;15.336;2022-10-16T02:34:10;46.17;;;28.40;;
3841;SDS011;1936;47.074;15.336;2022-10-16T02:36:14;48.13;;;32.47;;
3841;SDS011;1936;47.074;15.336;2022-10-16T02:38:17;46.30;;;30.40;;
3841;SDS011;1936;47.074;15.336;2022-10-16T02:40:23;40.60;;;28.37;;
3841;SDS011;1936;47.074;15.336;2022-10-16T02:42:27;43.37;;;28.60;;
3841;SDS011;1936;47.074;15.336;2022-10-16T02:44:32;45.93;;;30.00;;
3841;SDS011;1936;47.074;15.336;2022-10-16T02:46:35;45.80;;;29.93;;
3841;SDS011;1936;47.074;15.336;2022-10-16T02:48:40;56.67;;;30.80;;
3841;SDS011;1936;47.074;15.336;2022-10-16T02:50:43;58.00;;;31.40;;
3841;SDS011;1936;47.074;15.336;2022-10-16T02:52:46;41.70;;;28.93;;
3841;SDS011;1936;47.074;15.336;2022-10-16T02:54:50;59.23;;;28.83;;
3841;SDS011;1936;47.074;15.336;2022-10-16T02:56:53;132.60;;;37.03;;
3841;SDS011;1936;47.074;15.336;2022-10-16T02:58:56;55.00;;;32.07;;
3841;SDS011;1936;47.074;15.336;2022-10-16T03:01:00;45.90;;;31.47;;
3841;SDS011;1936;47.074;15.336;2022-10-16T03:03:03;50.03;;;32.07;;
3841;SDS011;1936;47.074;15.336;2022-10-16T03:05:08;39.90;;;29.07;;
3841;SDS011;1936;47.074;15.336;2022-10-16T03:07:12;48.73;;;32.07;;
3841;SDS011;1936;47.074;15.336;2022-10-16T03:09:15;46.40;;;31.77;;
3841;SDS011;1936;47.074;15.336;2022-10-16T03:11:18;58.20;;;33.40;;
3841;SDS011;1936;47.074;15.336;2022-10-16T03:13:22;43.87;;;29.70;;
3841;SDS011;1936;47.074;15.336;2022-10-16T03:15:26;52.57;;;31.17;;
3841;SDS011;1936;47.074;15.336;2022-10-16T03:17:31;48.27;;;31.87;;
3841;SDS011;1936;47.074;15.336;2022-10-16T03:19:35;135.63;;;36.40;;
3841;SDS011;1936;47.074;15.336;2022-10-16T03:21:39;62.93;;;35.57;;
3841;SDS011;1936;47.074;15.336;2022-10-16T03:23:42;50.03;;;30.30;;
3841;SDS011;1936;47.074;15.336;2022-10-16T03:25:46;121.97;;;35.20;;
3841;SDS011;1936;47.074;15.336;2022-10-16T03:27:50;49.53;;;30.70;;
3841;SDS011;1936;47.074;15.336;2022-10-16T03:29:53;57.47;;;33.30;;
3841;SDS011;1936;47.074;15.336;2022-10-16T03:31:57;60.83;;;33.70;;
3841;SDS011;1936;47.074;15.336;2022-10-16T03:34:00;75.83;;;38.93;;
3841;SDS011;1936;47.074;15.336;2022-10-16T03:36:04;131.10;;;53.90;;
3841;SDS011;1936;47.074;15.336;2022-10-16T03:38:09;116.30;;;50.47;;
3841;SDS011;1936;47.074;15.336;2022-10-16T03:40:13;109.87;;;50.77;;
3841;SDS011;1936;47.074;15.336;2022-10-16T03:42:16;95.13;;;47.53;;
3841;SDS011;1936;47.074;15.336;2022-10-16T03:44:20;100.67;;;50.30;;
3841;SDS011;1936;47.074;15.336;2022-10-16T03:46:23;110.23;;;50.33;;
3841;SDS011;1936;47.074;15.336;2022-10-16T03:48:26;113.00;;;47.63;;
3841;SDS011;1936;47.074;15.336;2022-10-16T03:50:30;92.90;;;46.80;;
3841;SDS011;1936;47.074;15.336;2022-10-16T03:52:33;65.70;;;39.10;;
3841;SDS011;1936;47.074;15.336;2022-10-16T03:54:38;67.13;;;38.20;;
3841;SDS011;1936;47.074;15.336;2022-10-16T03:56:42;69.53;;;37.03;;
3841;SDS011;1936;47.074;15.336;2022-10-16T03:58:45;63.27;;;38.30;;
3841;SDS011;1936;47.074;15.336;2022-10-16T04:00:48;55.67;;;32.60;;
3841;SDS011;1936;47.074;15.336;2022-10-16T04:02:52;65.57;;;33.53;;
3841;SDS011;1936;47.074;15.336;2022-10-16T04:04:55;49.97;;;32.97;;
3841;SDS011;1936;47.074;15.336;2022-10-16T04:06:59;61.50;;;30.27;;
3841;SDS011;1936;47.074;15.336;2022-10-16T04:09:03;45.53;;;28.90;;
3841;SDS011;1936;47.074;15.336;2022-10-16T04:11:07;55.80;;;31.23;;
3841;SDS011;1936;47.074;15.336;2022-10-16T04:13:11;51.77;;;31.17;;
3841;SDS011;1936;47.074;15.336;2022-10-16T04:15:15;57.33;;;34.70;;
3841;SDS011;1936;47.074;15.336;2022-10-16T04:17:18;56.27;;;31.40;;
3841;SDS011;1936;47.074;15.336;2022-10-16T04:19:22;44.37;;;30.10;;
3841;SDS011;1936;47.074;15.336;2022-10-16T04:21:25;44.30;;;30.50;;
3841;SDS011;1936;47.074;15.336;2022-10-16T04:23:29;47.97;;;29.90;;
3841;SDS011;1936;47.074;15.336;2022-10-16T04:25:32;41.47;;;27.77;;
3841;SDS011;1936;47.074;15.336;2022-10-16T04:27:37;46.23;;;29.10;;
3841;SDS011;1936;47.074;15.336;2022-10-16T04:29:46;46.33;;;29.30;;
3841;SDS011;1936;47.074;15.336;2022-10-16T04:31:49;49.20;;;29.67;;
3841;SDS011;1936;47.074;15.336;2022-10-16T04:33:53;45.30;;;27.57;;
3841;SDS011;1936;47.074;15.336;2022-10-16T04:35:56;42.00;;;27.30;;
3841;SDS011;1936;47.074;15.336;2022-10-16T04:38:00;40.03;;;25.93;;
3841;SDS011;1936;47.074;15.336;2022-10-16T04:40:04;41.53;;;26.13;;
3841;SDS011;1936;47.074;15.336;2022-10-16T04:42:07;39.47;;;26.53;;
3841;SDS011;1936;47.074;15.336;2022-10-16T04:44:12;42.10;;;28.10;;
3841;SDS011;1936;47.074;15.336;2022-10-16T04:46:15;40.23;;;26.20;;
3841;SDS011;1936;47.074;15.336;2022-10-16T04:48:19;39.10;;;27.20;;
3841;SDS011;1936;47.074;15.336;2022-10-16T04:50:23;38.07;;;25.33;;
3841;SDS011;1936;47.074;15.336;2022-10-16T04:52:26;35.50;;;24.63;;
3841;SDS011;1936;47.074;15.336;2022-10-16T04:54:29;37.37;;;24.43;;
3841;SDS011;1936;47.074;15.336;2022-10-16T04:56:32;38.87;;;23.10;;
3841;SDS011;1936;47.074;15.336;2022-10-16T04:58:41;30.40;;;23.20;;
3841;SDS011;1936;47.074;15.336;2022-10-16T05:00:45;31.33;;;23.10;;
3841;SDS011;1936;47.074;15.336;2022-10-16T05:02:49;36.50;;;24.47;;
3841;SDS011;1936;47.074;15.336;2022-10-16T05:04:53;41.83;;;23.73;;
3841;SDS011;1936;47.074;15.336;2022-10-16T05:06:56;33.37;;;23.13;;
3841;SDS011;1936;47.074;15.336;2022-10-16T05:08:59;41.30;;;25.27;;
3841;SDS011;1936;47.074;15.336;2022-10-16T05:11:03;35.90;;;22.43;;
3841;SDS011;1936;47.074;15.336;2022-10-16T05:13:06;35.03;;;25.17;;
3841;SDS011;1936;47.074;15.336;2022-10-16T05:15:10;36.37;;;25.73;;
3841;SDS011;1936;47.074;15.336;2022-10-16T05:17:15;39.70;;;25.10;;
3841;SDS011;1936;47.074;15.336;2022-10-16T05:19:18;35.00;;;24.80;;
3841;SDS011;1936;47.074;15.336;2022-10-16T05:21:29;33.37;;;22.90;;
3841;SDS011;1936;47.074;15.336;2022-10-16T05:23:33;32.50;;;23.43;;
3841;SDS011;1936;47.074;15.336;2022-10-16T05:25:36;38.13;;;23.87;;
3841;SDS011;1936;47.074;15.336;2022-10-16T05:27:39;36.63;;;26.00;;
3841;SDS011;1936;47.074;15.336;2022-10-16T05:29:43;36.20;;;25.93;;
3841;SDS011;1936;47.074;15.336;2022-10-16T05:31:49;35.70;;;25.40;;
3841;SDS011;1936;47.074;15.336;2022-10-16T05:34:20;36.70;;;25.63;;
3841;SDS011;1936;47.074;15.336;2022-10-16T05:36:23;41.17;;;27.03;;
3841;SDS011;1936;47.074;15.336;2022-10-16T05:38:27;42.17;;;27.60;;
3841;SDS011;1936;47.074;15.336;2022-10-16T05:40:30;31.50;;;24.70;;
3841;SDS011;1936;47.074;15.336;2022-10-16T05:42:33;40.87;;;24.47;;
3841;SDS011;1936;47.074;15.336;2022-10-16T05:44:36;38.70;;;25.80;;
3841;SDS011;1936;47.074;15.336;2022-10-16T05:46:40;29.83;;;25.17;;
3841;SDS011;1936;47.074;15.336;2022-10-16T05:48:43;39.43;;;25.23;;
3841;SDS011;1936;47.074;15.336;2022-10-16T05:50:48;34.40;;;23.70;;
3841;SDS011;1936;47.074;15.336;2022-10-16T05:52:58;28.70;;;22.97;;
3841;SDS011;1936;47.074;15.336;2022-10-16T05:55:02;32.60;;;24.07;;
3841;SDS011;1936;47.074;15.336;2022-10-16T05:57:06;31.13;;;23.90;;
3841;SDS011;1936;47.074;15.336;2022-10-16T05:59:09;35.90;;;25.10;;
3841;SDS011;1936;47.074;15.336;2022-10-16T06:01:13;34.73;;;24.70;;
3841;SDS011;1936;47.074;15.336;2022-10-16T06:03:18;37.53;;;24.80;;
3841;SDS011;1936;47.074;15.336;2022-10-16T06:05:21;38.60;;;24.93;;
3841;SDS011;1936;47.074;15.336;2022-10-16T06:07:26;34.37;;;23.47;;
3841;SDS011;1936;47.074;15.336;2022-10-16T06:09:29;35.40;;;23.03;;
3841;SDS011;1936;47.074;15.336;2022-10-16T06:11:33;32.53;;;23.90;;
3841;SDS011;1936;47.074;15.336;2022-10-16T06:13:36;31.93;;;23.20;;
3841;SDS011;1936;47.074;15.336;2022-10-16T06:15:41;32.60;;;26.00;;
3841;SDS011;1936;47.074;15.336;2022-10-16T06:17:45;30.47;;;24.70;;
3841;SDS011;1936;47.074;15.336;2022-10-16T06:19:48;44.23;;;26.60;;
3841;SDS011;1936;47.074;15.336;2022-10-16T06:21:51;36.13;;;24.20;;
3841;SDS011;1936;47.074;15.336;2022-10-16T06:23:56;53.57;;;29.93;;
3841;SDS011;1936;47.074;15.336;2022-10-16T06:26:10;59.73;;;35.67;;
3841;SDS011;1936;47.074;15.336;2022-10-16T06:28:14;63.37;;;38.53;;
3841;SDS011;1936;47.074;15.336;2022-10-16T06:30:17;49.23;;;31.43;;
3841;SDS011;1936;47.074;15.336;2022-10-16T06:32:21;67.67;;;38.77;;
3841;SDS011;1936;47.074;15.336;2022-10-16T06:34:24;55.10;;;32.20;;
3841;SDS011;1936;47.074;15.336;2022-10-16T06:36:27;73.70;;;35.47;;
3841;SDS011;1936;47.074;15.336;2022-10-16T06:38:31;57.60;;;33.40;;
3841;SDS011;1936;47.074;15.336;2022-10-16T06:40:36;60.80;;;35.90;;
3841;SDS011;1936;47.074;15.336;2022-10-16T06:42:39;49.37;;;32.27;;
3841;SDS011;1936;47.074;15.336;2022-10-16T06:44:43;44.23;;;29.90;;
3841;SDS011;1936;47.074;15.336;2022-10-16T06:46:46;48.50;;;28.03;;
3841;SDS011;1936;47.074;15.336;2022-10-16T06:48:50;38.70;;;27.20;;
3841;SDS011;1936;47.074;15.336;2022-10-16T06:50:57;38.57;;;25.53;;
3841;SDS011;1936;47.074;15.336;2022-10-16T06:53:01;31.70;;;23.10;;
3841;SDS011;1936;47.074;15.336;2022-10-16T06:55:05;34.20;;;23.93;;
3841;SDS011;1936;47.074;15.336;2022-10-16T06:57:10;34.83;;;23.40;;
3841;SDS011;1936;47.074;15.336;2022-10-16T06:59:14;30.23;;;23.17;;
3841;SDS011;1936;47.074;15.336;2022-10-16T07:01:18;32.13;;;23.40;;
3841;SDS011;1936;47.074;15.336;2022-10-16T07:03:22;40.73;;;25.10;;
3841;SDS011;1936;47.074;15.336;2022-10-16T07:05:25;37.70;;;23.30;;
3841;SDS011;1936;47.074;15.336;2022-10-16T07:07:29;55.63;;;33.73;;
3841;SDS011;1936;47.074;15.336;2022-10-16T07:09:32;41.23;;;28.20;;
3841;SDS011;1936;47.074;15.336;2022-10-16T07:11:37;30.73;;;24.40;;
3841;SDS011;1936;47.074;15.336;2022-10-16T07:13:44;25.40;;;19.97;;
3841;SDS011;1936;47.074;15.336;2022-10-16T07:15:54;31.27;;;18.73;;
3841;SDS011;1936;47.074;15.336;2022-10-16T07:17:58;21.50;;;18.30;;
3841;SDS011;1936;47.074;15.336;2022-10-16T07:20:02;21.87;;;16.37;;
3841;SDS011;1936;47.074;15.336;2022-10-16T07:22:05;17.87;;;15.97;;
3841;SDS011;1936;47.074;15.336;2022-10-16T07:24:10;18.87;;;16.07;;
3841;SDS011;1936;47.074;15.336;2022-10-16T07:26:14;16.40;;;14.80;;
3841;SDS011;1936;47.074;15.336;2022-10-16T07:28:18;17.93;;;15.93;;
3841;SDS011;1936;47.074;15.336;2022-10-16T07:30:23;16.43;;;14.83;;
3841;SDS011;1936;47.074;15.336;2022-10-16T07:32:26;16.13;;;14.30;;
3841;SDS011;1936;47.074;15.336;2022-10-16T07:34:30;17.37;;;13.73;;
3841;SDS011;1936;47.074;15.336;2022-10-16T07:36:34;14.70;;;13.30;;
3841;SDS011;1936;47.074;15.336;2022-10-16T07:38:37;17.83;;;13.73;;
3841;SDS011;1936;47.074;15.336;2022-10-16T07:40:41;15.77;;;14.27;;
3841;SDS011;1936;47.074;15.336;2022-10-16T07:42:44;14.67;;;13.23;;
3841;SDS011;1936;47.074;15.336;2022-10-16T07:44:48;15.87;;;14.27;;
3841;SDS011;1936;47.074;15.336;2022-10-16T07:46:53;15.77;;;14.37;;
3841;SDS011;1936;47.074;15.336;2022-10-16T07:48:56;15.80;;;14.40;;
3841;SDS011;1936;47.074;15.336;2022-10-16T07:51:00;14.67;;;13.27;;
3841;SDS011;1936;47.074;15.336;2022-10-16T07:53:04;14.20;;;12.80;;
3841;SDS011;1936;47.074;15.336;2022-10-16T07:55:08;15.00;;;13.40;;
3841;SDS011;1936;47.074;15.336;2022-10-16T07:57:11;16.53;;;13.67;;
3841;SDS011;1936;47.074;15.336;2022-10-16T07:59:20;14.33;;;13.03;;
3841;SDS011;1936;47.074;15.336;2022-10-16T08:01:23;14.33;;;13.00;;
3841;SDS011;1936;47.074;15.336;2022-10-16T08:03:28;14.90;;;13.40;;
3841;SDS011;1936;47.074;15.336;2022-10-16T08:05:32;15.10;;;13.70;;
3841;SDS011;1936;47.074;15.336;2022-10-16T08:07:36;12.43;;;11.20;;
3841;SDS011;1936;47.074;15.336;2022-10-16T08:09:40;15.00;;;13.60;;
3841;SDS011;1936;47.074;15.336;2022-10-16T08:11:43;13.90;;;12.60;;
3841;SDS011;1936;47.074;15.336;2022-10-16T08:13:47;13.33;;;11.23;;
3841;SDS011;1936;47.074;15.336;2022-10-16T08:15:51;12.70;;;11.50;;
3841;SDS011;1936;47.074;15.336;2022-10-16T08:17:55;13.53;;;12.40;;
3841;SDS011;1936;47.074;15.336;2022-10-16T08:20:00;11.77;;;10.70;;
3841;SDS011;1936;47.074;15.336;2022-10-16T08:22:04;13.60;;;12.20;;
3841;SDS011;1936;47.074;15.336;2022-10-16T08:24:07;14.13;;;12.83;;
3841;SDS011;1936;47.074;15.336;2022-10-16T08:26:11;18.80;;;12.23;;
3841;SDS011;1936;47.074;15.336;2022-10-16T08:28:16;12.70;;;11.60;;
3841;SDS011;1936;47.074;15.336;2022-10-16T08:30:20;13.40;;;11.77;;
3841;SDS011;1936;47.074;15.336;2022-10-16T08:32:24;13.03;;;12.03;;
3841;SDS011;1936;47.074;15.336;2022-10-16T08:34:28;15.13;;;11.97;;
3841;SDS011;1936;47.074;15.336;2022-10-16T08:36:33;12.70;;;11.60;;
3841;SDS011;1936;47.074;15.336;2022-10-16T08:38:36;12.17;;;11.07;;
3841;SDS011;1936;47.074;15.336;2022-10-16T08:40:41;13.03;;;12.00;;
3841;SDS011;1936;47.074;15.336;2022-10-16T08:42:52;11.50;;;9.93;;
3841;SDS011;1936;47.074;15.336;2022-10-16T08:45:05;12.27;;;11.33;;
3841;SDS011;1936;47.074;15.336;2022-10-16T08:47:13;11.70;;;10.67;;
3841;SDS011;1936;47.074;15.336;2022-10-16T08:49:18;11.80;;;10.60;;
3841;SDS011;1936;47.074;15.336;2022-10-16T08:51:23;11.97;;;10.87;;
3841;SDS011;1936;47.074;15.336;2022-10-16T08:53:31;11.73;;;10.73;;
3841;SDS011;1936;47.074;15.336;2022-10-16T08:55:38;12.63;;;11.13;;
3841;SDS011;1936;47.074;15.336;2022-10-16T08:57:44;12.40;;;10.77;;
3841;SDS011;1936;47.074;15.336;2022-10-16T08:59:47;10.73;;;9.70;;
3841;SDS011;1936;47.074;15.336;2022-10-16T09:01:51;11.53;;;10.63;;
3841;SDS011;1936;47.074;15.336;2022-10-16T09:04:09;12.57;;;11.00;;
3841;SDS011;1936;47.074;15.336;2022-10-16T09:06:26;10.20;;;9.37;;
3841;SDS011;1936;47.074;15.336;2022-10-16T09:08:37;12.40;;;10.00;;
3841;SDS011;1936;47.074;15.336;2022-10-16T09:10:47;11.50;;;10.30;;
3841;SDS011;1936;47.074;15.336;2022-10-16T09:12:55;10.90;;;9.80;;
3841;SDS011;1936;47.074;15.336;2022-10-16T09:15:02;10.77;;;9.80;;
3841;SDS011;1936;47.074;15.336;2022-10-16T09:17:14;14.03;;;10.87;;
3841;SDS011;1936;47.074;15.336;2022-10-16T09:19:21;10.90;;;10.00;;
3841;SDS011;1936;47.074;15.336;2022-10-16T09:21:28;10.67;;;9.53;;
3841;SDS011;1936;47.074;15.336;2022-10-16T09:23:33;11.63;;;10.33;;
3841;SDS011;1936;47.074;15.336;2022-10-16T09:25:40;11.80;;;10.90;;
3841;SDS011;1936;47.074;15.336;2022-10-16T09:27:47;11.43;;;10.43;;
3841;SDS011;1936;47.074;15.336;2022-10-16T09:29:51;10.70;;;9.77;;
3841;SDS011;1936;47.074;15.336;2022-10-16T09:32:06;11.10;;;10.13;;
3841;SDS011;1936;47.074;15.336;2022-10-16T09:34:14;10.77;;;9.87;;
3841;SDS011;1936;47.074;15.336;2022-10-16T09:36:21;11.07;;;10.27;;
3841;SDS011;1936;47.074;15.336;2022-10-16T09:38:26;11.70;;;10.70;;
3841;SDS011;1936;47.074;15.336;2022-10-16T09:40:31;10.60;;;9.80;;
3841;SDS011;1936;47.074;15.336;2022-10-16T09:42:37;15.03;;;9.47;;
3841;SDS011;1936;47.074;15.336;2022-10-16T09:44:40;12.67;;;9.90;;
3841;SDS011;1936;47.074;15.336;2022-10-16T09:46:44;10.90;;;10.10;;
3841;SDS011;1936;47.074;15.336;2022-10-16T09:48:48;10.90;;;10.00;;
3841;SDS011;1936;47.074;15.336;2022-10-16T09:50:55;13.43;;;10.50;;
3841;SDS011;1936;47.074;15.336;2022-10-16T09:53:03;11.43;;;10.53;;
3841;SDS011;1936;47.074;15.336;2022-10-16T09:55:12;11.47;;;10.40;;
3841;SDS011;1936;47.074;15.336;2022-10-16T09:57:17;9.87;;;8.97;;
3841;SDS011;1936;47.074;15.336;2022-10-16T09:59:22;10.23;;;9.20;;
3841;SDS011;1936;47.074;15.336;2022-10-16T10:01:29;11.57;;;10.20;;
3841;SDS011;1936;47.074;15.336;2022-10-16T10:03:34;10.50;;;9.80;;
3841;SDS011;1936;47.074;15.336;2022-10-16T10:05:39;11.43;;;10.53;;
3841;SDS011;1936;47.074;15.336;2022-10-16T10:07:43;10.57;;;9.67;;
3841;SDS011;1936;47.074;15.336;2022-10-16T10:09:47;10.10;;;9.40;;
3841;SDS011;1936;47.074;15.336;2022-10-16T10:11:51;11.20;;;10.10;;
3841;SDS011;1936;47.074;15.336;2022-10-16T10:14:03;11.67;;;10.70;;
3841;SDS011;1936;47.074;15.336;2022-10-16T10:16:08;10.67;;;9.80;;
3841;SDS011;1936;47.074;15.336;2022-10-16T10:18:16;11.10;;;10.30;;
3841;SDS011;1936;47.074;15.336;2022-10-16T10:20:25;10.20;;;9.50;;
3841;SDS011;1936;47.074;15.336;2022-10-16T10:22:30;10.03;;;9.10;;
3841;SDS011;1936;47.074;15.336;2022-10-16T10:24:34;9.63;;;8.93;;
3841;SDS011;1936;47.074;15.336;2022-10-16T10:26:38;10.57;;;9.67;;
3841;SDS011;1936;47.074;15.336;2022-10-16T10:28:50;11.70;;;10.80;;
3841;SDS011;1936;47.074;15.336;2022-10-16T10:30:56;10.47;;;9.67;;
3841;SDS011;1936;47.074;15.336;2022-10-16T10:33:09;10.00;;;9.20;;
3841;SDS011;1936;47.074;15.336;2022-10-16T10:35:15;10.20;;;9.50;;
3841;SDS011;1936;47.074;15.336;2022-10-16T10:37:23;9.73;;;8.93;;
3841;SDS011;1936;47.074;15.336;2022-10-16T10:39:30;10.40;;;9.60;;
3841;SDS011;1936;47.074;15.336;2022-10-16T10:41:51;9.93;;;9.23;;
3841;SDS011;1936;47.074;15.336;2022-10-16T10:44:01;10.20;;;9.30;;
3841;SDS011;1936;47.074;15.336;2022-10-16T10:46:07;10.60;;;9.70;;
3841;SDS011;1936;47.074;15.336;2022-10-16T10:48:19;10.30;;;9.50;;
3841;SDS011;1936;47.074;15.336;2022-10-16T10:50:25;10.93;;;9.90;;
3841;SDS011;1936;47.074;15.336;2022-10-16T10:54:49;11.37;;;10.40;;
3841;SDS011;1936;47.074;15.336;2022-10-16T10:56:57;9.93;;;8.93;;
3841;SDS011;1936;47.074;15.336;2022-10-16T10:59:02;12.37;;;11.37;;
3841;SDS011;1936;47.074;15.336;2022-10-16T11:01:10;10.60;;;9.70;;
3841;SDS011;1936;47.074;15.336;2022-10-16T11:03:20;12.13;;;10.93;;
3841;SDS011;1936;47.074;15.336;2022-10-16T11:05:33;11.97;;;10.87;;
3841;SDS011;1936;47.074;15.336;2022-10-16T11:07:41;14.03;;;12.73;;
3841;SDS011;1936;47.074;15.336;2022-10-16T11:09:48;14.83;;;12.83;;
3841;SDS011;1936;47.074;15.336;2022-10-16T11:11:55;17.53;;;14.47;;
3841;SDS011;1936;47.074;15.336;2022-10-16T11:14:00;15.50;;;13.83;;
3841;SDS011;1936;47.074;15.336;2022-10-16T11:16:10;12.43;;;11.43;;
3841;SDS011;1936;47.074;15.336;2022-10-16T11:18:23;14.27;;;12.90;;
3841;SDS011;1936;47.074;15.336;2022-10-16T11:20:28;14.03;;;13.03;;
3841;SDS011;1936;47.074;15.336;2022-10-16T11:22:35;13.07;;;11.73;;
3841;SDS011;1936;47.074;15.336;2022-10-16T11:24:41;14.13;;;12.93;;
3841;SDS011;1936;47.074;15.336;2022-10-16T11:26:46;14.17;;;12.97;;
3841;SDS011;1936;47.074;15.336;2022-10-16T11:28:50;14.40;;;13.03;;
3841;SDS011;1936;47.074;15.336;2022-10-16T11:30:57;13.53;;;12.47;;
3841;SDS011;1936;47.074;15.336;2022-10-16T11:33:05;13.57;;;12.47;;
3841;SDS011;1936;47.074;15.336;2022-10-16T11:35:15;13.23;;;12.07;;
3841;SDS011;1936;47.074;15.336;2022-10-16T11:37:21;14.00;;;12.87;;
3841;SDS011;1936;47.074;15.336;2022-10-16T11:39:27;13.87;;;12.67;;
3841;SDS011;1936;47.074;15.336;2022-10-16T11:41:33;13.50;;;12.40;;
3841;SDS011;1936;47.074;15.336;2022-10-16T11:43:39;11.97;;;10.67;;
3841;SDS011;1936;47.074;15.336;2022-10-16T11:45:44;12.97;;;11.63;;
3841;SDS011;1936;47.074;15.336;2022-10-16T11:47:51;12.93;;;11.90;;
3841;SDS011;1936;47.074;15.336;2022-10-16T11:50:01;11.70;;;10.80;;
3841;SDS011;1936;47.074;15.336;2022-10-16T11:52:07;12.90;;;11.80;;
3841;SDS011;1936;47.074;15.336;2022-10-16T11:54:18;14.00;;;13.00;;
3841;SDS011;1936;47.074;15.336;2022-10-16T11:56:24;12.27;;;11.37;;
3841;SDS011;1936;47.074;15.336;2022-10-16T11:58:28;14.77;;;12.43;;
3841;SDS011;1936;47.074;15.336;2022-10-16T12:00:37;12.90;;;11.87;;
3841;SDS011;1936;47.074;15.336;2022-10-16T12:02:49;13.00;;;12.00;;
3841;SDS011;1936;47.074;15.336;2022-10-16T12:04:56;12.73;;;11.63;;
3841;SDS011;1936;47.074;15.336;2022-10-16T12:07:11;13.20;;;12.10;;
3841;SDS011;1936;47.074;15.336;2022-10-16T12:09:20;11.80;;;10.90;;
3841;SDS011;1936;47.074;15.336;2022-10-16T12:11:30;11.80;;;10.90;;
3841;SDS011;1936;47.074;15.336;2022-10-16T12:13:35;12.20;;;11.00;;
3841;SDS011;1936;47.074;15.336;2022-10-16T12:15:39;11.47;;;10.47;;
3841;SDS011;1936;47.074;15.336;2022-10-16T12:18:00;11.50;;;10.50;;
3841;SDS011;1936;47.074;15.336;2022-10-16T12:20:18;12.50;;;10.97;;
3841;SDS011;1936;47.074;15.336;2022-10-16T12:22:24;12.37;;;11.23;;
3841;SDS011;1936;47.074;15.336;2022-10-16T12:24:32;12.57;;;11.57;;
3841;SDS011;1936;47.074;15.336;2022-10-16T12:26:37;14.83;;;13.53;;
3841;SDS011;1936;47.074;15.336;2022-10-16T12:28:43;13.27;;;12.07;;